New Cambria, KS (67470)

9:33 PM CDT on August 04, 2015 (GMT -0500)
Weaver's Addition | | Change Station
CLOSE
Current Station
Personal Weather Station
Location: New Cambria, KS
Elevation: 1196 ft
Nearby Weather Stations

Elev 1196 ft 38.88 °N, 97.51 °W | Updated 6 hours ago

Mostly Cloudy
Mostly Cloudy
75 °F
Feels Like 75 °F
N
11
Wind Variable Wind from SSE
Gusts 20 mph

Today
High -- | Low -- °F
--% Chance of Precip.
Yesterday
High -- | Low -- °F
Precip. -- in
6:33 AM 8:38 PM
Waning Gibbous, 72% visible
Pressure 29.96 in
Visibility 10.0 miles
Clouds Few 1700 ft
Mostly Cloudy 3900 ft
Mostly Cloudy 9500 ft
Dew Point 69 °F
Humidity 83%
Rainfall 0.00 in
Snow Depth Not available.
UV 1.0 out of 12
Pollen 7.00 out of 12
Air Quality Not available.
Flu Activity Not available.
SPECI KSLN 050211Z 02017G23KT 10SM VCTS FEW017 BKN039 BKN095 23/19 A2996 RMK AO2 LTG DSNT W-NE T02330189

More Conditions Fewer Conditions

Pressure 29.96 in
Visibility 10.0 miles
Clouds Few 1700 ft
Mostly Cloudy 3900 ft
Mostly Cloudy 9500 ft
Dew Point 69 °F
Humidity 83%
Rainfall 0.00 in
Snow Depth Not available.
UV 1.0 out of 12
Pollen 7.00 out of 12
Air Quality Not available.
Flu Activity Not available.
SPECI KSLN 050211Z 02017G23KT 10SM VCTS FEW017 BKN039 BKN095 23/19 A2996 RMK AO2 LTG DSNT W-NE T02330189

More Conditions Fewer Conditions

10-Day Weather Forecast

×

Almanac

Astronomy

Aug. 04, 2015 Rise Set
Actual Time
Civil Twilight
Nautical Twilight
Astronomical Twilight
Moon
Length of Visible Light
Length of Day
Tomorrow will be .
, % of the Moon is Illuminated

Today's Extremes

State Highs State Lows

Community

WunderPhotos

Upload Photos

1,844,087 photos uploaded!

WunderBlogs® & News

Nearby

Air Quality

  Air Quality AQ Index Pollutant
Not available.

Snow Depth

Station Depth Elevation

Earthquake Activity

City Distance Mag. Time & Date
Minimum magnitude displayed is 2.5.

Coastal Water Temperatures

Place Temperature

Stations

Nearby Weather Stations

Station Location Temp. Windchill Dew Point Humidity Wind Precip. Elev Updated Type